Time,TemperatureF,DewpointF,PressureIn,WindDirection,WindDirectionDegrees,WindSpeedMPH,WindSpeedGustMPH,Humidity,HourlyPrecipIn,Conditions,Clouds,dailyrainin,SoftwareType,DateUTC
2013-07-21 00:12:00,74.7,73.0,29.99,WSW,252,0.0,-999.0,94,-99.99,,,0.00,weatherlink.com 1.10,2013-07-21 05:12:00,
2013-07-21 00:28:00,74.7,73.0,29.98,WSW,252,0.0,-999.0,94,-99.99,,,0.00,weatherlink.com 1.10,2013-07-21 05:28:00,
2013-07-21 00:43:00,74.8,73.0,29.98,WSW,252,0.0,-999.0,95,-99.99,,,0.00,weatherlink.com 1.10,2013-07-21 05:43:00,
2013-07-21 00:58:00,74.7,73.0,29.99,WSW,252,0.0,-999.0,95,-99.99,,,0.00,weatherlink.com 1.10,2013-07-21 05:58:00,
2013-07-21 01:13:00,74.8,73.0,29.98,WSW,252,0.0,-999.0,95,-99.99,,,0.00,weatherlink.com 1.10,2013-07-21 06:13:00,
2013-07-21 01:28:00,74.7,73.0,29.99,WSW,252,0.0,-999.0,95,-99.99,,,0.00,weatherlink.com 1.10,2013-07-21 06:28:00,
2013-07-21 01:43:00,74.6,73.0,29.99,WSW,252,0.0,-999.0,95,-99.99,,,0.00,weatherlink.com 1.10,2013-07-21 06:43:00,
2013-07-21 01:58:00,74.5,73.0,29.98,WSW,252,0.0,-999.0,95,-99.99,,,0.00,weatherlink.com 1.10,2013-07-21 06:58:00,
2013-07-21 02:13:00,74.3,73.0,29.99,WSW,252,0.0,-999.0,95,-99.99,,,0.00,weatherlink.com 1.10,2013-07-21 07:13:00,
2013-07-21 02:28:00,74.2,73.0,29.98,WSW,252,0.0,-999.0,95,-99.99,,,0.00,weatherlink.com 1.10,2013-07-21 07:28:00,
2013-07-21 02:43:00,74.0,73.0,29.99,WSW,252,0.0,-999.0,95,-99.99,,,0.00,weatherlink.com 1.10,2013-07-21 07:43:00,
2013-07-21 02:58:00,73.9,72.0,29.99,WSW,252,0.0,-999.0,95,-99.99,,,0.00,weatherlink.com 1.10,2013-07-21 07:58:00,
2013-07-21 03:13:00,73.9,72.0,29.98,WSW,252,0.0,-999.0,95,-99.99,,,0.00,weatherlink.com 1.10,2013-07-21 08:13:00,
2013-07-21 03:28:00,73.7,72.0,29.98,WSW,252,0.0,-999.0,95,-99.99,,,0.00,weatherlink.com 1.10,2013-07-21 08:28:00,
2013-07-21 03:43:00,73.6,72.0,29.98,WSW,252,0.0,-999.0,96,-99.99,,,0.00,weatherlink.com 1.10,2013-07-21 08:43:00,
2013-07-21 03:58:00,73.5,72.0,29.98,WSW,252,0.0,-999.0,95,-99.99,,,0.00,weatherlink.com 1.10,2013-07-21 08:58:00,
2013-07-21 04:13:00,73.4,72.0,29.98,WSW,252,0.0,-999.0,96,-99.99,,,0.00,weatherlink.com 1.10,2013-07-21 09:13:00,
2013-07-21 04:28:00,73.3,72.0,29.98,WSW,252,0.0,-999.0,96,-99.99,,,0.00,weatherlink.com 1.10,2013-07-21 09:28:00,
2013-07-21 04:43:00,73.2,72.0,29.98,WSW,252,0.0,-999.0,96,-99.99,,,0.00,weatherlink.com 1.10,2013-07-21 09:43:00,
2013-07-21 04:58:00,73.1,72.0,29.99,WSW,252,0.0,-999.0,96,-99.99,,,0.00,weatherlink.com 1.10,2013-07-21 09:58:00,
2013-07-21 05:13:00,73.4,72.0,29.99,WSW,252,0.0,-999.0,96,-99.99,,,0.00,weatherlink.com 1.10,2013-07-21 10:13:00,
2013-07-21 05:28:00,73.5,72.0,29.99,WSW,252,0.0,-999.0,96,-99.99,,,0.00,weatherlink.com 1.10,2013-07-21 10:28:00,
2013-07-21 05:43:00,73.6,72.0,29.99,WSW,252,0.0,-999.0,96,-99.99,,,0.00,weatherlink.com 1.10,2013-07-21 10:43:00,
2013-07-21 05:58:00,73.8,73.0,29.99,WSW,252,0.0,-999.0,96,-99.99,,,0.00,weatherlink.com 1.10,2013-07-21 10:58:00,
2013-07-21 06:13:00,73.7,73.0,30.00,WSW,252,0.0,-999.0,96,-99.99,,,0.00,weatherlink.com 1.10,2013-07-21 11:13:00,
2013-07-21 06:28:00,73.6,72.0,30.00,SSW,206,0.0,-999.0,96,-99.99,,,0.00,weatherlink.com 1.10,2013-07-21 11:28:00,
2013-07-21 06:43:00,73.4,72.0,30.00,SSW,206,0.0,-999.0,96,-99.99,,,0.00,weatherlink.com 1.10,2013-07-21 11:43:00,
2013-07-21 06:58:00,73.8,73.0,30.00,SSW,206,0.0,-999.0,97,-99.99,,,0.00,weatherlink.com 1.10,2013-07-21 11:58:00,
2013-07-21 07:13:00,74.3,73.0,30.00,SSW,206,0.0,-999.0,97,-99.99,,,0.00,weatherlink.com 1.10,2013-07-21 12:13:00,
2013-07-21 07:28:00,75.4,75.0,30.00,SSW,205,0.0,-999.0,97,-99.99,,,0.00,weatherlink.com 1.10,2013-07-21 12:28:00,
2013-07-21 07:43:00,76.2,75.0,30.00,SE,139,0.0,-999.0,97,-99.99,,,0.00,weatherlink.com 1.10,2013-07-21 12:43:00,
2013-07-21 07:58:00,77.1,76.0,30.01,SE,139,0.0,-999.0,96,-99.99,,,0.00,weatherlink.com 1.10,2013-07-21 12:58:00,
2013-07-21 08:13:00,78.0,77.0,30.01,East,99,0.0,-999.0,96,-99.99,,,0.00,weatherlink.com 1.10,2013-07-21 13:13:00,
2013-07-21 08:28:00,79.2,78.0,30.01,East,101,0.0,-999.0,95,-99.99,,,0.00,weatherlink.com 1.10,2013-07-21 13:28:00,
2013-07-21 08:43:00,80.7,78.0,30.01,SSE,152,0.0,-999.0,92,-99.99,,,0.00,weatherlink.com 1.10,2013-07-21 13:43:00,
2013-07-21 08:58:00,82.7,78.0,30.02,SE,130,0.0,-999.0,86,-99.99,,,0.00,weatherlink.com 1.10,2013-07-21 13:58:00,
2013-07-21 09:13:00,85.0,79.0,30.01,SSW,200,0.0,-999.0,81,-99.99,,,0.00,weatherlink.com 1.10,2013-07-21 14:13:00,
2013-07-21 09:28:00,85.8,79.0,30.02,NNW,335,0.0,-999.0,79,-99.99,,,0.00,weatherlink.com 1.10,2013-07-21 14:28:00,
2013-07-21 09:43:00,87.2,78.0,30.02,South,170,4.0,-999.0,74,-99.99,,,0.00,weatherlink.com 1.10,2013-07-21 14:43:00,
2013-07-21 09:59:00,87.8,78.0,30.02,SSE,155,0.0,-999.0,73,-99.99,,,0.00,weatherlink.com 1.10,2013-07-21 14:59:00,
2013-07-21 10:14:00,89.0,79.0,30.03,South,186,2.0,-999.0,72,-99.99,,,0.00,weatherlink.com 1.10,2013-07-21 15:14:00,
2013-07-21 10:29:00,89.1,79.0,30.03,SSW,208,0.0,-999.0,73,-99.99,,,0.00,weatherlink.com 1.10,2013-07-21 15:29:00,
2013-07-21 10:44:00,89.8,78.0,30.03,South,188,1.0,-999.0,69,-99.99,,,0.00,weatherlink.com 1.10,2013-07-21 15:44:00,
2013-07-21 10:59:00,90.6,78.0,30.03,SSE,157,0.0,-999.0,67,-99.99,,,0.00,weatherlink.com 1.10,2013-07-21 15:59:00,
2013-07-21 11:14:00,89.5,78.0,30.05,South,175,1.0,-999.0,68,-99.99,,,0.00,weatherlink.com 1.10,2013-07-21 16:14:00,
2013-07-21 11:29:00,86.0,76.0,30.07,South,178,0.0,-999.0,71,-99.99,,,0.01,weatherlink.com 1.10,2013-07-21 16:29:00,
2013-07-21 11:44:00,79.3,73.0,30.07,South,190,0.0,-999.0,82,-99.99,,,0.24,weatherlink.com 1.10,2013-07-21 16:44:00,
2013-07-21 11:59:00,76.9,73.0,30.06,South,175,1.0,-999.0,88,-99.99,,,0.26,weatherlink.com 1.10,2013-07-21 16:59:00,
2013-07-21 12:14:00,76.0,73.0,30.07,South,178,0.0,-999.0,91,-99.99,,,0.30,weatherlink.com 1.10,2013-07-21 17:14:00,
2013-07-21 12:29:00,75.7,74.0,30.07,South,173,0.0,-999.0,93,-99.99,,,0.31,weatherlink.com 1.10,2013-07-21 17:29:00,
2013-07-21 12:44:00,76.5,75.0,30.07,SSW,198,2.0,-999.0,94,-99.99,,,0.32,weatherlink.com 1.10,2013-07-21 17:44:00,
2013-07-21 12:59:00,77.0,75.0,30.05,SSW,207,0.0,-999.0,94,-99.99,,,0.32,weatherlink.com 1.10,2013-07-21 17:59:00,
2013-07-21 13:14:00,77.4,76.0,30.04,ESE,109,2.0,-999.0,94,-99.99,,,0.32,weatherlink.com 1.10,2013-07-21 18:14:00,
2013-07-21 13:29:00,77.8,76.0,30.04,WNW,288,0.0,-999.0,93,-99.99,,,0.32,weatherlink.com 1.10,2013-07-21 18:29:00,
2013-07-21 13:44:00,78.3,77.0,30.02,WSW,239,0.0,-999.0,94,-99.99,,,0.32,weatherlink.com 1.10,2013-07-21 18:44:00,
2013-07-21 13:59:00,79.6,78.0,30.01,WSW,247,1.0,-999.0,93,-99.99,,,0.32,weatherlink.com 1.10,2013-07-21 18:59:00,
2013-07-21 14:14:00,82.0,78.0,30.01,SW,231,0.0,-999.0,88,-99.99,,,0.32,weatherlink.com 1.10,2013-07-21 19:14:00,
2013-07-21 14:29:00,84.5,79.0,30.00,NNW,335,1.0,-999.0,83,-99.99,,,0.32,weatherlink.com 1.10,2013-07-21 19:29:00,
2013-07-21 14:44:00,86.1,79.0,30.00,SSE,164,0.0,-999.0,80,-99.99,,,0.32,weatherlink.com 1.10,2013-07-21 19:44:00,
2013-07-21 14:59:00,87.2,78.0,30.00,SSW,198,2.0,-999.0,73,-99.99,,,0.32,weatherlink.com 1.10,2013-07-21 19:59:00,
2013-07-21 15:14:00,88.0,79.0,30.00,WSW,245,1.0,-999.0,75,-99.99,,,0.32,weatherlink.com 1.10,2013-07-21 20:14:00,
2013-07-21 15:29:00,88.3,78.0,29.99,SSW,194,0.0,-999.0,71,-99.99,,,0.32,weatherlink.com 1.10,2013-07-21 20:29:00,
2013-07-21 15:44:00,88.6,78.0,29.99,SW,236,4.0,-999.0,71,-99.99,,,0.32,weatherlink.com 1.10,2013-07-21 20:44:00,
2013-07-21 15:59:00,87.9,77.0,29.99,WSW,249,2.0,-999.0,70,-99.99,,,0.32,weatherlink.com 1.10,2013-07-21 20:59:00,
2013-07-21 16:14:00,86.6,76.0,29.99,NW,311,0.0,-999.0,71,-99.99,,,0.32,weatherlink.com 1.10,2013-07-21 21:14:00,
2013-07-21 16:29:00,86.4,77.0,29.99,NW,315,0.0,-999.0,73,-99.99,,,0.32,weatherlink.com 1.10,2013-07-21 21:29:00,
2013-07-21 16:44:00,86.8,76.0,29.99,SSE,155,0.0,-999.0,70,-99.99,,,0.32,weatherlink.com 1.10,2013-07-21 21:44:00,
2013-07-21 16:59:00,87.2,77.0,29.98,WSW,244,1.0,-999.0,71,-99.99,,,0.32,weatherlink.com 1.10,2013-07-21 21:59:00,
2013-07-21 17:14:00,87.0,77.0,29.98,SSW,202,0.0,-999.0,71,-99.99,,,0.32,weatherlink.com 1.10,2013-07-21 22:14:00,
2013-07-21 17:29:00,86.1,77.0,29.98,SE,129,0.0,-999.0,74,-99.99,,,0.32,weatherlink.com 1.10,2013-07-21 22:29:00,
2013-07-21 17:44:00,85.8,77.0,29.98,SSW,194,0.0,-999.0,74,-99.99,,,0.32,weatherlink.com 1.10,2013-07-21 22:44:00,
2013-07-21 17:59:00,85.6,76.0,29.98,West,267,0.0,-999.0,73,-99.99,,,0.32,weatherlink.com 1.10,2013-07-21 22:59:00,
2013-07-21 18:14:00,85.6,76.0,29.98,SW,234,1.0,-999.0,73,-99.99,,,0.32,weatherlink.com 1.10,2013-07-21 23:14:00,
2013-07-21 18:29:00,85.4,76.0,29.98,South,191,0.0,-999.0,74,-99.99,,,0.32,weatherlink.com 1.10,2013-07-21 23:29:00,
2013-07-21 18:44:00,85.0,76.0,29.98,East,97,0.0,-999.0,75,-99.99,,,0.32,weatherlink.com 1.10,2013-07-21 23:44:00,
2013-07-21 18:59:00,84.5,76.0,29.98,SSE,154,0.0,-999.0,75,-99.99,,,0.32,weatherlink.com 1.10,2013-07-21 23:59:00,
2013-07-21 19:14:00,84.2,76.0,29.98,SSE,154,0.0,-999.0,77,-99.99,,,0.32,weatherlink.com 1.10,2013-07-22 00:14:00,
2013-07-21 19:29:00,83.8,76.0,29.98,SSE,151,0.0,-999.0,77,-99.99,,,0.32,weatherlink.com 1.10,2013-07-22 00:29:00,
2013-07-21 19:44:00,83.3,76.0,29.99,SSE,156,0.0,-999.0,78,-99.99,,,0.32,weatherlink.com 1.10,2013-07-22 00:44:00,
2013-07-21 19:59:00,82.8,76.0,29.99,SSE,156,0.0,-999.0,79,-99.99,,,0.32,weatherlink.com 1.10,2013-07-22 00:59:00,
2013-07-21 20:14:00,82.1,76.0,29.99,SSE,156,0.0,-999.0,81,-99.99,,,0.32,weatherlink.com 1.10,2013-07-22 01:14:00,
2013-07-21 20:29:00,81.4,75.0,29.99,SSE,156,0.0,-999.0,82,-99.99,,,0.32,weatherlink.com 1.10,2013-07-22 01:29:00,
2013-07-21 20:44:00,80.7,75.0,29.99,SSE,156,0.0,-999.0,83,-99.99,,,0.32,weatherlink.com 1.10,2013-07-22 01:44:00,
2013-07-21 20:59:00,80.1,75.0,29.99,SSE,156,0.0,-999.0,83,-99.99,,,0.32,weatherlink.com 1.10,2013-07-22 01:59:00,
2013-07-21 21:14:00,79.6,75.0,30.00,SSE,156,0.0,-999.0,85,-99.99,,,0.32,weatherlink.com 1.10,2013-07-22 02:14:00,
2013-07-21 21:29:00,78.9,74.0,30.00,SSE,156,0.0,-999.0,86,-99.99,,,0.32,weatherlink.com 1.10,2013-07-22 02:29:00,
2013-07-21 21:44:00,78.3,74.0,30.01,SSE,156,0.0,-999.0,87,-99.99,,,0.32,weatherlink.com 1.10,2013-07-22 02:44:00,
2013-07-21 21:59:00,77.8,74.0,30.01,SSE,156,0.0,-999.0,87,-99.99,,,0.32,weatherlink.com 1.10,2013-07-22 02:59:00,
2013-07-21 22:14:00,77.4,74.0,30.01,ENE,63,0.0,-999.0,88,-99.99,,,0.32,weatherlink.com 1.10,2013-07-22 03:14:00,
2013-07-21 22:29:00,77.1,73.0,30.02,ENE,65,0.0,-999.0,88,-99.99,,,0.32,weatherlink.com 1.10,2013-07-22 03:29:00,
2013-07-21 22:44:00,76.9,73.0,30.02,ENE,65,0.0,-999.0,88,-99.99,,,0.32,weatherlink.com 1.10,2013-07-22 03:44:00,
2013-07-21 22:59:00,76.9,74.0,30.02,ENE,65,0.0,-999.0,89,-99.99,,,0.32,weatherlink.com 1.10,2013-07-22 03:59:00,
2013-07-21 23:14:00,76.7,73.0,30.02,ENE,65,0.0,-999.0,89,-99.99,,,0.32,weatherlink.com 1.10,2013-07-22 04:14:00,
2013-07-21 23:29:00,76.4,74.0,30.03,ENE,65,0.0,-999.0,91,-99.99,,,0.32,weatherlink.com 1.10,2013-07-22 04:29:00,
2013-07-21 23:44:00,76.0,73.0,30.02,ENE,65,0.0,-999.0,91,-99.99,,,0.32,weatherlink.com 1.10,2013-07-22 04:44:00,
2013-07-21 23:59:00,75.8,73.0,30.03,ENE,65,0.0,-999.0,92,-99.99,,,0.32,weatherlink.com 1.10,2013-07-22 04:59:00,